createdAt,value
2022-07-29T00:01:42.360Z,99434.23
2022-07-29T00:04:11.139Z,99435.13
2022-07-29T00:06:39.442Z,99432.71
2022-07-29T00:09:08.274Z,99427.15
2022-07-29T00:11:36.694Z,99424.88
2022-07-29T00:14:04.942Z,99427.02
2022-07-29T00:16:33.320Z,99426.69
2022-07-29T00:19:02.399Z,99422.98
2022-07-29T00:21:30.903Z,99420.98
2022-07-29T00:23:59.229Z,99421.86
2022-07-29T00:26:28.884Z,99426.54
2022-07-29T00:29:30.806Z,99425.70
2022-07-29T00:31:45.790Z,99426.38
2022-07-29T00:34:32.731Z,99426.64
2022-07-29T00:37:01.068Z,99428.54
2022-07-29T00:39:29.311Z,99429.44
2022-07-29T00:41:57.570Z,99428.77
2022-07-29T00:44:25.966Z,99427.55
2022-07-29T00:46:54.346Z,99427.14
2022-07-29T00:49:22.752Z,99426.98
2022-07-29T00:51:51.482Z,99425.23
2022-07-29T00:54:19.868Z,99419.94
2022-07-29T00:56:48.252Z,99417.90
2022-07-29T00:59:16.587Z,99415.69
2022-07-29T01:01:44.879Z,99418.69
2022-07-29T01:04:13.443Z,99416.96
2022-07-29T01:06:43.986Z,99418.13
2022-07-29T01:09:13.500Z,99414.61
2022-07-29T01:11:42.156Z,99417.14
2022-07-29T01:14:11.623Z,99419.79
2022-07-29T01:16:50.334Z,99419.17
2022-07-29T01:19:38.221Z,99418.13
2022-07-29T01:22:25.262Z,99411.48
2022-07-29T01:25:24.776Z,99410.17
2022-07-29T01:28:31.422Z,99404.92
2022-07-29T01:31:01.877Z,99403.23
2022-07-29T01:33:50.558Z,99395.20
2022-07-29T01:36:29.740Z,99399.48
2022-07-29T01:39:15.299Z,99400.73
2022-07-29T01:42:42.864Z,99405.33
2022-07-29T01:45:18.615Z,99404.44
2022-07-29T01:48:11.709Z,99405.27
2022-07-29T01:50:53.375Z,99409.69
2022-07-29T01:53:37.999Z,99403.05
2022-07-29T01:56:10.095Z,99397.85
2022-07-29T01:58:41.966Z,99399.07
2022-07-29T02:01:12.748Z,99401.95
2022-07-29T02:03:46.306Z,99401.16
2022-07-29T02:06:20.125Z,99399.12
2022-07-29T02:08:50.247Z,99400.34
2022-07-29T02:11:19.003Z,99398.62
2022-07-29T02:13:48.688Z,99397.36
2022-07-29T02:16:20.389Z,99395.86
2022-07-29T02:18:52.350Z,99391.83
2022-07-29T02:21:25.931Z,99390.25
2022-07-29T02:23:55.761Z,99391.66
2022-07-29T02:26:27.023Z,99390.23
2022-07-29T02:28:58.458Z,99392.55
2022-07-29T02:31:31.490Z,99392.58
2022-07-29T02:34:01.276Z,99398.06
2022-07-29T02:36:31.160Z,99396.66
2022-07-29T02:39:01.899Z,99395.95
2022-07-29T02:41:46.472Z,99395.58
2022-07-29T02:44:17.645Z,99392.52
2022-07-29T02:46:54.648Z,99389.73
2022-07-29T02:49:25.723Z,99390.00
2022-07-29T02:52:08.121Z,99388.06
2022-07-29T02:54:50.230Z,99385.86
2022-07-29T02:57:31.511Z,99380.23
2022-07-29T03:00:05.599Z,99379.30
2022-07-29T03:02:39.514Z,99378.11
2022-07-29T03:05:10.885Z,99376.63
2022-07-29T03:07:42.013Z,99384.79
2022-07-29T03:10:11.100Z,99377.77
2022-07-29T03:12:43.092Z,99373.45
2022-07-29T03:15:12.165Z,99372.56
2022-07-29T03:17:40.976Z,99370.73
2022-07-29T03:20:10.210Z,99368.80
2022-07-29T03:22:49.678Z,99365.96
2022-07-29T03:25:20.502Z,99363.95
2022-07-29T03:27:49.630Z,99364.83
2022-07-29T03:30:22.149Z,99367.13
2022-07-29T03:32:52.713Z,99373.23
2022-07-29T03:35:21.667Z,99376.55
2022-07-29T03:37:50.330Z,99376.02
2022-07-29T03:40:25.639Z,99376.42
2022-07-29T03:42:56.695Z,99382.48
2022-07-29T03:45:26.500Z,99385.73
2022-07-29T03:48:00.946Z,99386.46
2022-07-29T03:50:34.313Z,99389.61
2022-07-29T03:53:03.763Z,99385.73
2022-07-29T03:55:44.337Z,99384.98
2022-07-29T03:58:14.722Z,99379.98
2022-07-29T04:00:45.011Z,99380.45
2022-07-29T04:03:14.377Z,99380.30
2022-07-29T04:05:44.264Z,99377.20
2022-07-29T04:08:12.622Z,99378.98
2022-07-29T04:10:43.399Z,99371.95
2022-07-29T04:13:11.660Z,99371.84
2022-07-29T04:15:39.912Z,99371.61
2022-07-29T04:18:08.255Z,99367.44
2022-07-29T04:20:36.526Z,99369.70
2022-07-29T04:23:04.742Z,99369.45
2022-07-29T04:25:32.974Z,99374.37
2022-07-29T04:28:01.261Z,99369.51
2022-07-29T04:30:31.016Z,99366.36
2022-07-29T04:33:01.990Z,99366.73
2022-07-29T04:35:38.470Z,99364.19
2022-07-29T04:38:15.729Z,99365.96
2022-07-29T04:40:45.527Z,99368.69
2022-07-29T04:43:16.782Z,99367.19
2022-07-29T04:45:51.448Z,99368.03
2022-07-29T04:48:22.923Z,99370.79
2022-07-29T04:50:55.013Z,99373.73
2022-07-29T04:53:23.471Z,99374.87
2022-07-29T04:55:52.286Z,99373.50
2022-07-29T04:58:20.643Z,99375.18
2022-07-29T05:00:48.971Z,99370.00
2022-07-29T05:03:17.183Z,99370.45
2022-07-29T05:05:45.490Z,99358.41
2022-07-29T05:08:13.928Z,99354.39
2022-07-29T05:10:42.213Z,99355.91
2022-07-29T05:13:10.534Z,99356.35
2022-07-29T05:15:39.155Z,99356.52
2022-07-29T05:18:07.350Z,99354.64
2022-07-29T05:20:35.779Z,99355.27
2022-07-29T05:23:04.751Z,99352.58
2022-07-29T05:25:43.761Z,99355.33
2022-07-29T05:28:13.476Z,99360.59
2022-07-29T05:30:41.799Z,99361.39
2022-07-29T05:33:36.228Z,99356.63
2022-07-29T05:36:00.889Z,99359.08
2022-07-29T05:38:29.953Z,99356.68
2022-07-29T05:41:00.701Z,99360.69
2022-07-29T05:43:29.974Z,99352.95
2022-07-29T05:45:58.503Z,99353.91
2022-07-29T05:48:27.034Z,99357.41
2022-07-29T05:50:56.091Z,99352.80
2022-07-29T05:53:24.457Z,99353.90
2022-07-29T05:55:53.299Z,99356.88
2022-07-29T05:58:21.796Z,99358.55
2022-07-29T06:00:50.415Z,99359.08
2022-07-29T06:03:18.751Z,99359.97
2022-07-29T06:05:47.031Z,99358.86
2022-07-29T06:08:15.353Z,99359.95
2022-07-29T06:10:43.722Z,99359.42
2022-07-29T06:13:12.617Z,99355.95
2022-07-29T06:15:41.041Z,99353.23
2022-07-29T06:18:11.216Z,99353.77
2022-07-29T06:20:39.503Z,99355.93
2022-07-29T06:23:07.819Z,99358.20
2022-07-29T06:25:37.734Z,99361.08
2022-07-29T06:28:06.094Z,99357.14
2022-07-29T06:30:34.486Z,99356.85
2022-07-29T06:33:03.845Z,99359.02
2022-07-29T06:35:38.962Z,99365.63
2022-07-29T06:38:31.714Z,99366.67
2022-07-29T06:41:03.866Z,99364.56
2022-07-29T06:43:36.275Z,99362.20
2022-07-29T06:46:22.071Z,99357.14
2022-07-29T06:48:51.191Z,99359.41
2022-07-29T06:51:22.575Z,99358.46
2022-07-29T06:54:01.653Z,99363.19
2022-07-29T06:56:38.965Z,99362.02
2022-07-29T06:59:10.185Z,99359.79
2022-07-29T07:01:40.653Z,99356.54
2022-07-29T07:04:10.700Z,99357.99
2022-07-29T07:06:39.249Z,99358.83
2022-07-29T07:09:07.721Z,99355.71
2022-07-29T07:11:36.495Z,99351.79
2022-07-29T07:14:04.826Z,99351.41
2022-07-29T07:16:33.671Z,99350.89
2022-07-29T07:19:02.559Z,99352.83
2022-07-29T07:21:31.363Z,99350.59
2022-07-29T07:24:00.903Z,99352.17
2022-07-29T07:26:29.297Z,99351.89
2022-07-29T07:28:57.832Z,99348.35
2022-07-29T07:31:26.259Z,99352.75
2022-07-29T07:33:54.823Z,99353.33
2022-07-29T07:36:24.337Z,99349.06
2022-07-29T07:38:52.616Z,99350.55
2022-07-29T07:41:22.635Z,99349.25
2022-07-29T07:43:50.907Z,99353.20
2022-07-29T07:46:19.273Z,99351.55
2022-07-29T07:48:47.641Z,99355.54
2022-07-29T07:51:15.850Z,99355.74
2022-07-29T07:53:45.796Z,99351.30
2022-07-29T07:56:14.113Z,99354.46
2022-07-29T07:58:42.360Z,99358.67
2022-07-29T08:01:11.042Z,99356.40
2022-07-29T08:03:40.024Z,99354.55
2022-07-29T08:06:08.358Z,99352.36
2022-07-29T08:08:36.685Z,99349.91
2022-07-29T08:11:09.405Z,99342.23
2022-07-29T08:13:39.539Z,99341.76
2022-07-29T08:16:16.735Z,99341.63
2022-07-29T08:18:46.844Z,99338.02
2022-07-29T08:21:16.667Z,99333.47
2022-07-29T08:24:00.691Z,99334.18
2022-07-29T08:26:30.368Z,99333.05
2022-07-29T08:28:58.595Z,99327.09
2022-07-29T08:31:26.971Z,99330.80
2022-07-29T08:33:57.385Z,99327.40
2022-07-29T08:36:27.579Z,99328.14
2022-07-29T08:38:56.308Z,99327.48
2022-07-29T08:41:24.694Z,99326.64
2022-07-29T08:43:53.499Z,99322.96
2022-07-29T08:46:23.185Z,99325.58
2022-07-29T08:48:51.764Z,99329.83
2022-07-29T08:51:21.755Z,99325.95
2022-07-29T08:53:51.462Z,99329.56
2022-07-29T08:56:20.920Z,99325.90
2022-07-29T08:58:52.359Z,99325.73
2022-07-29T09:01:35.998Z,99330.67
2022-07-29T09:04:12.305Z,99325.33
2022-07-29T09:06:45.613Z,99330.30
2022-07-29T09:09:14.901Z,99324.67
2022-07-29T09:11:44.661Z,99323.61
2022-07-29T09:14:14.694Z,99328.96
2022-07-29T09:16:57.498Z,99328.55
2022-07-29T09:19:27.720Z,99329.27
2022-07-29T09:22:03.477Z,99328.45
2022-07-29T09:24:35.587Z,99321.34
2022-07-29T09:27:11.345Z,99324.16
2022-07-29T09:29:40.382Z,99321.81
2022-07-29T09:32:10.962Z,99317.09
2022-07-29T09:34:39.583Z,99311.03
2022-07-29T09:37:08.183Z,99312.39
2022-07-29T09:39:45.323Z,99308.09
2022-07-29T09:42:16.718Z,99302.84
2022-07-29T09:44:49.303Z,99301.59
2022-07-29T09:47:19.617Z,99296.87
2022-07-29T09:50:01.583Z,99291.81
2022-07-29T09:52:31.336Z,99292.54
2022-07-29T09:55:17.819Z,99288.92
2022-07-29T09:57:48.016Z,99285.38
2022-07-29T10:00:19.960Z,99289.60
2022-07-29T10:02:48.653Z,99284.55
2022-07-29T10:05:26.674Z,99285.02
2022-07-29T10:08:06.052Z,99290.48
2022-07-29T10:10:36.867Z,99288.81
2022-07-29T10:13:16.021Z,99283.45
2022-07-29T10:15:47.411Z,99283.83
2022-07-29T10:18:18.536Z,99281.76
2022-07-29T10:20:47.017Z,99280.71
2022-07-29T10:23:15.698Z,99280.55
2022-07-29T10:25:46.512Z,99279.55
2022-07-29T10:28:16.785Z,99276.73
2022-07-29T10:30:46.861Z,99281.52
2022-07-29T10:33:33.525Z,99278.30
2022-07-29T10:36:27.159Z,99272.67
2022-07-29T10:38:55.861Z,99265.92
2022-07-29T10:41:56.173Z,99268.71
2022-07-29T10:44:26.805Z,99267.48
2022-07-29T10:46:56.003Z,99267.59
2022-07-29T10:49:31.197Z,99263.77
2022-07-29T10:52:07.020Z,99259.69
2022-07-29T10:54:43.990Z,99257.73
2022-07-29T10:57:52.295Z,99254.30
2022-07-29T11:00:16.887Z,99253.09
2022-07-29T11:02:50.172Z,99252.06
2022-07-29T11:05:20.578Z,99250.48
2022-07-29T11:08:19.945Z,99248.30
2022-07-29T11:10:51.401Z,99246.80
2022-07-29T11:13:58.295Z,99240.95
2022-07-29T11:16:26.983Z,99233.92
2022-07-29T11:19:13.629Z,99232.86
2022-07-29T11:21:55.285Z,99237.85
2022-07-29T11:24:30.015Z,99238.90
2022-07-29T11:27:22.087Z,99237.72
2022-07-29T11:29:58.685Z,99237.77
2022-07-29T11:32:41.565Z,99231.92
2022-07-29T11:35:38.075Z,99230.64
2022-07-29T11:38:23.757Z,99225.36
2022-07-29T11:41:23.319Z,99226.91
2022-07-29T11:44:00.237Z,99223.55
2022-07-29T11:46:53.765Z,99222.18
2022-07-29T11:49:32.224Z,99220.89
2022-07-29T11:52:05.561Z,99216.81
2022-07-29T11:54:38.846Z,99210.72
2022-07-29T11:57:29.531Z,99205.45
2022-07-29T12:00:14.579Z,99205.48
2022-07-29T12:02:48.559Z,99206.94
2022-07-29T12:05:36.494Z,99200.62
2022-07-29T12:08:22.782Z,99209.69
2022-07-29T12:10:52.968Z,99201.23
2022-07-29T12:13:22.789Z,99201.26
2022-07-29T12:16:06.230Z,99190.62
2022-07-29T12:18:34.651Z,99189.25
2022-07-29T12:21:07.539Z,99189.64
2022-07-29T12:23:36.527Z,99185.83
2022-07-29T12:26:07.334Z,99182.45
2022-07-29T12:28:40.017Z,99178.16
2022-07-29T12:31:15.180Z,99174.73
2022-07-29T12:34:03.526Z,99175.59
2022-07-29T12:36:31.994Z,99172.23
2022-07-29T12:39:00.287Z,99164.53
2022-07-29T12:41:30.266Z,99167.51
2022-07-29T12:43:58.526Z,99160.00
2022-07-29T12:46:26.938Z,99158.31
2022-07-29T12:48:56.182Z,99159.48
2022-07-29T12:51:39.341Z,99154.27
2022-07-29T12:54:14.697Z,99148.33
2022-07-29T12:56:45.438Z,99148.50
2022-07-29T12:59:14.603Z,99150.35
2022-07-29T13:01:43.526Z,99145.07
2022-07-29T13:04:12.252Z,99138.64
2022-07-29T13:06:50.868Z,99134.08
2022-07-29T13:09:42.983Z,99128.17
2022-07-29T13:12:14.106Z,99122.63
2022-07-29T13:14:44.938Z,99128.90
2022-07-29T13:17:14.648Z,99124.29
2022-07-29T13:19:54.039Z,99119.89
2022-07-29T13:22:25.849Z,99119.77
2022-07-29T13:25:03.133Z,99111.47
2022-07-29T13:27:34.458Z,99113.21
2022-07-29T13:30:06.762Z,99106.65
2022-07-29T13:32:37.472Z,99105.31
2022-07-29T13:35:08.893Z,99104.77
2022-07-29T13:37:39.707Z,99102.91
2022-07-29T13:40:11.059Z,99097.83
2022-07-29T13:42:40.222Z,99099.07
2022-07-29T13:45:09.825Z,99100.02
2022-07-29T13:47:38.935Z,99099.40
2022-07-29T13:50:09.240Z,99101.20
2022-07-29T13:52:38.713Z,99097.02
2022-07-29T13:55:07.848Z,99095.37
2022-07-29T13:57:36.701Z,99095.15
2022-07-29T14:00:05.623Z,99092.42
2022-07-29T14:02:36.893Z,99083.58
2022-07-29T14:05:08.663Z,99083.38
2022-07-29T14:07:39.845Z,99082.23
2022-07-29T14:10:09.202Z,99081.79
2022-07-29T14:12:37.672Z,99079.13
2022-07-29T14:15:06.518Z,99077.52
2022-07-29T14:17:34.995Z,99071.84
2022-07-29T14:20:04.083Z,99074.23
2022-07-29T14:22:32.428Z,99073.96
2022-07-29T14:25:05.647Z,99072.03
2022-07-29T14:27:44.842Z,99066.33
2022-07-29T14:30:13.922Z,99061.80
2022-07-29T14:32:42.276Z,99058.17
2022-07-29T14:35:10.746Z,99056.65
2022-07-29T14:37:40.239Z,99059.20
2022-07-29T14:40:10.394Z,99058.33
2022-07-29T14:42:39.760Z,99050.63
2022-07-29T14:45:10.405Z,99048.01
2022-07-29T14:47:40.503Z,99048.13
2022-07-29T14:50:09.875Z,99051.13
2022-07-29T14:52:38.313Z,99046.42
2022-07-29T14:55:19.950Z,99037.90
2022-07-29T14:57:51.058Z,99032.91
2022-07-29T15:00:19.422Z,99028.06
2022-07-29T15:03:04.224Z,99024.98
2022-07-29T15:05:33.262Z,99024.44
2022-07-29T15:08:01.618Z,99027.38
2022-07-29T15:10:30.582Z,99031.95
2022-07-29T15:12:58.902Z,99042.98
2022-07-29T15:15:27.342Z,99052.35
2022-07-29T15:17:55.762Z,99056.08
2022-07-29T15:20:26.380Z,99064.85
2022-07-29T15:22:56.619Z,99070.77
2022-07-29T15:25:27.943Z,99078.96
2022-07-29T15:28:01.174Z,99087.82
2022-07-29T15:30:34.471Z,99080.59
2022-07-29T15:33:04.490Z,99077.14
2022-07-29T15:35:33.642Z,99068.71
2022-07-29T15:38:09.319Z,99063.13
2022-07-29T15:40:42.306Z,99054.72
2022-07-29T15:43:10.674Z,99051.53
2022-07-29T15:45:40.978Z,99039.50
2022-07-29T15:48:10.343Z,99032.17
2022-07-29T15:50:47.057Z,99024.08
2022-07-29T15:53:15.534Z,99024.00
2022-07-29T15:55:44.533Z,99021.48
2022-07-29T15:58:12.928Z,99024.52
2022-07-29T16:00:41.345Z,99031.23
2022-07-29T16:03:09.795Z,99038.93
2022-07-29T16:05:38.883Z,99045.92
2022-07-29T16:08:07.273Z,99055.09
2022-07-29T16:10:35.633Z,99059.88
2022-07-29T16:13:04.066Z,99055.56
2022-07-29T16:15:32.588Z,99053.81
2022-07-29T16:18:01.242Z,99055.05
2022-07-29T16:20:29.553Z,99056.07
2022-07-29T16:22:57.860Z,99056.81
2022-07-29T16:25:43.900Z,99061.78
2022-07-29T16:28:14.333Z,99068.63
2022-07-29T16:30:42.628Z,99074.63
2022-07-29T16:33:10.974Z,99079.64
2022-07-29T16:35:40.550Z,99088.41
2022-07-29T16:38:08.884Z,99101.14
2022-07-29T16:40:37.106Z,99114.59
2022-07-29T16:43:05.425Z,99132.88
2022-07-29T16:45:46.059Z,99156.21
2022-07-29T16:48:15.538Z,99167.21
2022-07-29T16:50:46.558Z,99178.38
2022-07-29T16:53:14.937Z,99191.63
2022-07-29T16:55:43.202Z,99198.04
2022-07-29T16:58:11.955Z,99205.42
2022-07-29T17:00:40.331Z,99215.25
2022-07-29T17:03:08.695Z,99216.40
2022-07-29T17:05:52.265Z,99222.73
2022-07-29T17:08:23.035Z,99232.59
2022-07-29T17:10:51.468Z,99236.23
2022-07-29T17:13:19.889Z,99239.73
2022-07-29T17:15:48.340Z,99238.76
2022-07-29T17:18:16.857Z,99238.34
2022-07-29T17:20:45.718Z,99234.91
2022-07-29T17:23:13.946Z,99231.13
2022-07-29T17:25:42.241Z,99234.33
2022-07-29T17:28:10.462Z,99238.02
2022-07-29T17:30:38.710Z,99241.25
2022-07-29T17:33:07.034Z,99240.41
2022-07-29T17:35:54.297Z,99242.69
2022-07-29T17:38:22.629Z,99243.51
2022-07-29T17:40:50.894Z,99241.77
2022-07-29T17:43:19.153Z,99246.99
2022-07-29T17:45:49.994Z,99253.27
2022-07-29T17:48:20.185Z,99263.11
2022-07-29T17:50:49.282Z,99264.64
2022-07-29T17:53:17.807Z,99259.16
2022-07-29T17:55:48.804Z,99257.84
2022-07-29T17:58:17.461Z,99257.98
2022-07-29T18:00:45.923Z,99259.33
2022-07-29T18:03:15.251Z,99253.71
2022-07-29T18:05:44.444Z,99248.65
2022-07-29T18:08:13.100Z,99236.71
2022-07-29T18:10:41.562Z,99230.16
2022-07-29T18:13:12.795Z,99220.45
2022-07-29T18:15:41.641Z,99199.34
2022-07-29T18:18:10.036Z,99185.67
2022-07-29T18:20:38.552Z,99173.90
2022-07-29T18:23:06.911Z,99171.77
2022-07-29T18:25:35.310Z,99172.73
2022-07-29T18:28:04.323Z,99174.80
2022-07-29T18:30:34.627Z,99173.66
2022-07-29T18:33:21.747Z,99174.76
2022-07-29T18:36:04.204Z,99181.04
2022-07-29T18:38:41.432Z,99195.40
2022-07-29T18:41:09.716Z,99190.12
2022-07-29T18:43:38.006Z,99195.41
2022-07-29T18:46:06.952Z,99202.91
2022-07-29T18:48:35.493Z,99202.04
2022-07-29T18:51:09.502Z,99202.05
2022-07-29T18:53:38.190Z,99203.02
2022-07-29T18:56:06.520Z,99211.83
2022-07-29T18:58:37.066Z,99208.33
2022-07-29T19:01:06.145Z,99208.86
2022-07-29T19:03:35.062Z,99217.59
2022-07-29T19:06:03.527Z,99221.04
2022-07-29T19:08:32.806Z,99220.58
2022-07-29T19:11:01.075Z,99219.21
2022-07-29T19:13:29.406Z,99216.99
2022-07-29T19:15:57.898Z,99211.50
2022-07-29T19:18:26.152Z,99203.45
2022-07-29T19:20:54.497Z,99198.04
2022-07-29T19:23:23.205Z,99198.04
2022-07-29T19:25:53.490Z,99190.52
2022-07-29T19:28:22.889Z,99187.67
2022-07-29T19:30:52.005Z,99185.71
2022-07-29T19:33:21.116Z,99187.47
2022-07-29T19:35:54.329Z,99197.90
2022-07-29T19:38:23.873Z,99199.45
2022-07-29T19:40:53.398Z,99201.06
2022-07-29T19:43:51.113Z,99198.48
2022-07-29T19:46:10.002Z,99191.25
2022-07-29T19:48:38.392Z,99187.75
2022-07-29T19:51:06.801Z,99178.33
2022-07-29T19:53:35.132Z,99173.98
2022-07-29T19:56:04.057Z,99170.77
2022-07-29T19:58:32.605Z,99168.21
2022-07-29T20:01:01.089Z,99168.18
2022-07-29T20:03:29.696Z,99167.59
2022-07-29T20:05:58.395Z,99171.16
2022-07-29T20:08:26.735Z,99164.98
2022-07-29T20:10:56.069Z,99169.73
2022-07-29T20:13:25.350Z,99169.28
2022-07-29T20:15:53.858Z,99166.52
2022-07-29T20:18:22.125Z,99165.88
2022-07-29T20:20:50.387Z,99171.91
2022-07-29T20:23:19.503Z,99175.48
2022-07-29T20:25:48.498Z,99175.36
2022-07-29T20:28:16.803Z,99174.67
2022-07-29T20:30:45.217Z,99168.79
2022-07-29T20:33:16.005Z,99167.10
2022-07-29T20:35:44.409Z,99163.15
2022-07-29T20:38:17.790Z,99160.50
2022-07-29T20:40:46.699Z,99165.67
2022-07-29T20:43:14.975Z,99164.55
2022-07-29T20:45:43.231Z,99162.60
2022-07-29T20:48:13.521Z,99161.05
2022-07-29T20:50:42.948Z,99157.14
2022-07-29T20:53:11.925Z,99155.23
2022-07-29T20:55:40.299Z,99153.37
2022-07-29T20:58:08.828Z,99144.57
2022-07-29T21:00:37.488Z,99141.90
2022-07-29T21:03:05.963Z,99137.41
2022-07-29T21:05:34.426Z,99131.42
2022-07-29T21:08:02.850Z,99125.57
2022-07-29T21:10:31.329Z,99122.85
2022-07-29T21:12:59.641Z,99121.95
2022-07-29T21:15:29.338Z,99127.73
2022-07-29T21:18:06.255Z,99130.80
2022-07-29T21:20:34.576Z,99131.91
2022-07-29T21:23:02.821Z,99133.77
2022-07-29T21:25:31.027Z,99133.84
2022-07-29T21:28:18.170Z,99132.58
2022-07-29T21:30:46.422Z,99128.86
2022-07-29T21:33:14.843Z,99132.55
2022-07-29T21:35:59.064Z,99131.84
2022-07-29T21:38:31.783Z,99149.88
2022-07-29T21:41:00.403Z,99157.13
2022-07-29T21:43:29.039Z,99161.54
2022-07-29T21:45:58.516Z,99166.27
2022-07-29T21:48:28.544Z,99166.19
2022-07-29T21:50:57.314Z,99168.64
2022-07-29T21:53:27.082Z,99168.70
2022-07-29T21:55:55.855Z,99168.05
2022-07-29T21:58:24.855Z,99164.35
2022-07-29T22:00:54.015Z,99163.20
2022-07-29T22:03:22.416Z,99158.80
2022-07-29T22:05:50.600Z,99156.67
2022-07-29T22:08:21.677Z,99155.98
2022-07-29T22:10:49.883Z,99160.23
2022-07-29T22:13:18.169Z,99163.38
2022-07-29T22:15:47.333Z,99158.90
2022-07-29T22:18:20.523Z,99158.89
2022-07-29T22:20:50.412Z,99156.46
2022-07-29T22:23:18.815Z,99154.37
2022-07-29T22:25:47.066Z,99153.80
2022-07-29T22:28:15.351Z,99149.41
2022-07-29T22:30:43.596Z,99152.69
2022-07-29T22:33:16.976Z,99153.33
2022-07-29T22:35:48.458Z,99154.82
2022-07-29T22:38:18.596Z,99150.92
2022-07-29T22:40:48.570Z,99147.83
2022-07-29T22:43:17.306Z,99141.48
2022-07-29T22:45:45.664Z,99131.44
2022-07-29T22:48:14.021Z,99129.44
2022-07-29T22:50:42.623Z,99125.20
2022-07-29T22:53:10.929Z,99120.77
2022-07-29T22:55:39.270Z,99120.94
2022-07-29T22:58:07.541Z,99121.66
2022-07-29T23:00:35.946Z,99119.16
2022-07-29T23:03:04.514Z,99110.52
2022-07-29T23:05:33.581Z,99108.30
2022-07-29T23:08:01.864Z,99102.94
2022-07-29T23:10:30.262Z,99096.34
2022-07-29T23:12:58.646Z,99092.00
2022-07-29T23:15:26.900Z,99085.66
2022-07-29T23:17:55.269Z,99084.24
2022-07-29T23:20:23.625Z,99079.41
2022-07-29T23:22:51.882Z,99080.91
2022-07-29T23:25:20.294Z,99074.80
2022-07-29T23:27:48.578Z,99073.39
2022-07-29T23:30:16.860Z,99067.82
2022-07-29T23:32:45.169Z,99061.90
2022-07-29T23:35:13.438Z,99057.09
2022-07-29T23:37:41.711Z,99053.09
2022-07-29T23:40:14.274Z,99048.03
2022-07-29T23:42:43.260Z,99045.02
2022-07-29T23:45:13.153Z,99047.26
2022-07-29T23:47:42.985Z,99046.29
2022-07-29T23:50:12.691Z,99035.58
2022-07-29T23:52:42.154Z,99030.80
2022-07-29T23:55:37.131Z,99026.23
2022-07-29T23:58:00.759Z,99018.69
